createdAt,value
2019-02-22T00:01:44.603Z,104.25
2019-02-22T00:04:14.066Z,101.97
2019-02-22T00:06:43.524Z,110.15
2019-02-22T00:09:13.108Z,109.00
2019-02-22T00:11:42.483Z,109.90
2019-02-22T00:14:11.904Z,114.20
2019-02-22T00:16:41.288Z,111.25
2019-02-22T00:19:10.782Z,103.65
2019-02-22T00:21:40.132Z,112.97
2019-02-22T00:24:09.509Z,111.85
2019-02-22T00:26:38.929Z,117.80
2019-02-22T00:29:08.354Z,114.47
2019-02-22T00:31:37.724Z,102.02
2019-02-22T00:34:07.242Z,107.92
2019-02-22T00:36:36.807Z,110.30
2019-02-22T00:39:06.230Z,118.65
2019-02-22T00:41:35.957Z,121.82
2019-02-22T00:44:05.581Z,114.45
2019-02-22T00:46:34.964Z,116.25
2019-02-22T00:49:04.551Z,107.85
2019-02-22T00:51:35.366Z,113.90
2019-02-22T00:54:06.156Z,102.02
2019-02-22T00:56:35.527Z,88.05
2019-02-22T00:59:05.367Z,98.40
2019-02-22T01:01:34.752Z,94.77
2019-02-22T01:04:04.212Z,95.70
2019-02-22T01:06:33.716Z,105.67
2019-02-22T01:09:03.962Z,99.90
2019-02-22T01:14:03.921Z,100.05
2019-02-22T01:16:33.313Z,96.60
2019-02-22T01:19:03.722Z,103.55
2019-02-22T01:21:34.142Z,101.92
2019-02-22T01:24:03.850Z,95.62
2019-02-22T01:26:33.269Z,95.03
2019-02-22T01:29:02.644Z,96.80
2019-02-22T01:31:32.057Z,98.85
2019-02-22T01:34:01.407Z,92.57
2019-02-22T01:36:30.774Z,92.60
2019-02-22T01:39:00.196Z,95.30
2019-02-22T01:41:29.573Z,93.70
2019-02-22T01:43:58.953Z,91.25
2019-02-22T01:46:28.330Z,99.62
2019-02-22T01:48:57.753Z,91.87
2019-02-22T01:51:27.130Z,99.40
2019-02-22T01:53:56.474Z,98.27
2019-02-22T01:56:25.819Z,96.00
2019-02-22T01:58:55.205Z,98.85
2019-02-22T02:01:24.573Z,96.28
2019-02-22T02:03:53.996Z,93.55
2019-02-22T02:06:23.402Z,101.40
2019-02-22T02:08:52.793Z,89.72
2019-02-22T02:11:22.241Z,84.35
2019-02-22T02:13:51.678Z,95.83
2019-02-22T02:16:21.045Z,90.75
2019-02-22T02:18:50.493Z,91.45
2019-02-22T02:21:20.922Z,86.15
2019-02-22T02:23:51.801Z,82.27
2019-02-22T02:26:21.187Z,86.10
2019-02-22T02:28:51.651Z,89.15
2019-02-22T02:31:21.372Z,93.00
2019-02-22T02:33:50.751Z,90.17
2019-02-22T02:36:20.178Z,93.33
2019-02-22T02:38:49.558Z,88.60
2019-02-22T02:41:20.039Z,93.87
2019-02-22T02:43:50.458Z,88.90
2019-02-22T02:46:19.811Z,85.70
2019-02-22T02:48:49.253Z,82.02
2019-02-22T02:51:18.614Z,82.47
2019-02-22T02:53:47.971Z,81.00
2019-02-22T02:56:17.337Z,82.12
2019-02-22T02:58:46.695Z,86.75
2019-02-22T03:01:16.148Z,82.12
2019-02-22T03:03:45.542Z,82.90
2019-02-22T03:06:16.683Z,87.20
2019-02-22T03:08:46.023Z,92.47
2019-02-22T03:11:20.832Z,85.62
2019-02-22T03:13:46.498Z,92.33
2019-02-22T03:16:18.994Z,91.87
2019-02-22T03:18:48.357Z,93.30
2019-02-22T03:21:17.717Z,82.42
2019-02-22T03:23:47.161Z,86.63
2019-02-22T03:26:16.582Z,85.57
2019-02-22T03:28:46.026Z,85.38
2019-02-22T03:31:15.485Z,86.75
2019-02-22T03:33:44.915Z,78.07
2019-02-22T03:36:14.394Z,86.47
2019-02-22T03:38:47.684Z,83.52
2019-02-22T03:41:18.160Z,87.97
2019-02-22T03:43:47.610Z,84.30
2019-02-22T03:46:16.992Z,89.75
2019-02-22T03:48:46.354Z,89.55
2019-02-22T03:51:15.729Z,82.23
2019-02-22T03:53:46.871Z,88.52
2019-02-22T03:56:16.311Z,85.33
2019-02-22T03:58:47.241Z,83.10
2019-02-22T04:01:16.656Z,81.37
2019-02-22T04:03:46.083Z,83.85
2019-02-22T04:06:15.445Z,74.72
2019-02-22T04:08:45.288Z,82.17
2019-02-22T04:11:14.831Z,80.13
2019-02-22T04:13:44.237Z,83.82
2019-02-22T04:16:13.642Z,76.42
2019-02-22T04:18:43.009Z,80.45
2019-02-22T04:21:12.487Z,75.10
2019-02-22T04:23:41.868Z,76.05
2019-02-22T04:26:11.232Z,76.57
2019-02-22T04:28:41.104Z,81.15
2019-02-22T04:31:10.549Z,85.58
2019-02-22T04:33:39.900Z,82.05
2019-02-22T04:36:09.257Z,73.60
2019-02-22T04:38:40.308Z,78.33
2019-02-22T04:41:09.741Z,74.80
2019-02-22T04:43:39.131Z,79.35
2019-02-22T04:46:08.499Z,75.35
2019-02-22T04:48:37.918Z,78.42
2019-02-22T04:51:07.369Z,80.77
2019-02-22T04:53:38.414Z,74.40
2019-02-22T04:56:07.869Z,76.33
2019-02-22T04:58:37.227Z,79.80
2019-02-22T05:01:08.947Z,76.02
2019-02-22T05:06:06.867Z,73.78
2019-02-22T05:08:36.233Z,72.95
2019-02-22T05:11:06.171Z,83.78
2019-02-22T05:13:35.594Z,80.57
2019-02-22T05:16:05.320Z,79.90
2019-02-22T05:18:34.692Z,78.25
2019-02-22T05:21:04.142Z,81.72
2019-02-22T05:23:33.524Z,88.20
2019-02-22T05:26:02.925Z,74.40
2019-02-22T05:28:32.293Z,87.37
2019-02-22T05:31:01.722Z,79.07
2019-02-22T05:33:31.242Z,80.45
2019-02-22T05:36:00.665Z,85.70
2019-02-22T05:38:30.017Z,80.87
2019-02-22T05:41:00.149Z,85.10
2019-02-22T05:43:29.632Z,86.22
2019-02-22T05:45:58.977Z,81.50
2019-02-22T05:48:28.378Z,83.52
2019-02-22T05:50:57.781Z,85.30
2019-02-22T05:53:27.206Z,86.35
2019-02-22T05:55:56.622Z,83.22
2019-02-22T05:58:25.980Z,80.07
2019-02-22T06:00:55.367Z,84.52
2019-02-22T06:03:24.802Z,86.00
2019-02-22T06:05:54.523Z,83.30
2019-02-22T06:08:24.012Z,87.88
2019-02-22T06:10:53.392Z,82.45
2019-02-22T06:13:22.739Z,79.30
2019-02-22T06:15:52.156Z,82.72
2019-02-22T06:18:23.075Z,84.20
2019-02-22T06:20:52.825Z,87.67
2019-02-22T06:23:24.909Z,89.53
2019-02-22T06:28:22.869Z,83.20
2019-02-22T06:30:52.293Z,84.10
2019-02-22T06:33:22.172Z,87.45
2019-02-22T06:35:51.627Z,81.45
2019-02-22T06:38:21.067Z,94.65
2019-02-22T06:40:50.500Z,89.07
2019-02-22T06:43:19.881Z,89.60
2019-02-22T06:45:49.237Z,89.90
2019-02-22T06:48:18.601Z,95.47
2019-02-22T06:50:48.002Z,95.12
2019-02-22T06:53:17.385Z,89.35
2019-02-22T06:55:46.867Z,83.03
2019-02-22T06:58:16.305Z,86.75
2019-02-22T07:00:45.774Z,82.42
2019-02-22T07:03:15.148Z,88.50
2019-02-22T07:05:49.673Z,86.05
2019-02-22T07:08:19.341Z,83.53
2019-02-22T07:10:53.121Z,82.02
2019-02-22T07:13:24.491Z,80.23
2019-02-22T07:15:53.750Z,74.77
2019-02-22T07:18:23.186Z,81.15
2019-02-22T07:20:52.642Z,82.37
2019-02-22T07:23:22.011Z,79.57
2019-02-22T07:25:51.398Z,72.90
2019-02-22T07:28:20.857Z,77.53
2019-02-22T07:30:51.835Z,73.22
2019-02-22T07:33:21.211Z,68.95
2019-02-22T07:35:50.578Z,72.22
2019-02-22T07:38:20.019Z,76.50
2019-02-22T07:40:51.160Z,77.55
2019-02-22T07:43:20.751Z,74.23
2019-02-22T07:45:50.091Z,70.28
2019-02-22T07:48:19.575Z,74.60
2019-02-22T07:50:56.854Z,74.03
2019-02-22T07:53:20.092Z,73.10
2019-02-22T07:55:49.509Z,72.27
2019-02-22T07:58:18.947Z,67.80
2019-02-22T08:00:48.405Z,70.70
2019-02-22T08:03:17.890Z,72.00
2019-02-22T08:05:47.307Z,69.32
2019-02-22T08:08:18.353Z,76.93
2019-02-22T08:10:50.958Z,74.77
2019-02-22T08:13:20.598Z,74.50
2019-02-22T08:15:51.185Z,67.65
2019-02-22T08:18:20.950Z,70.12
2019-02-22T08:20:50.310Z,73.42
2019-02-22T08:23:19.828Z,78.55
2019-02-22T08:25:52.882Z,76.27
2019-02-22T08:28:25.303Z,81.87
2019-02-22T08:30:57.819Z,78.87
2019-02-22T08:33:27.178Z,77.15
2019-02-22T08:35:56.524Z,76.17
2019-02-22T08:38:25.904Z,81.55
2019-02-22T08:40:55.448Z,81.67
2019-02-22T08:43:31.459Z,82.50
2019-02-22T08:45:55.888Z,80.43
2019-02-22T08:48:25.258Z,79.62
2019-02-22T08:50:54.607Z,88.42
2019-02-22T08:53:23.983Z,78.67
2019-02-22T08:55:53.423Z,83.22
2019-02-22T08:58:24.069Z,78.05
2019-02-22T09:00:53.527Z,82.40
2019-02-22T09:03:23.196Z,82.30
2019-02-22T09:05:52.693Z,81.90
2019-02-22T09:08:22.048Z,81.85
2019-02-22T09:11:00.062Z,82.70
2019-02-22T09:13:22.707Z,79.97
2019-02-22T09:15:52.220Z,83.42
2019-02-22T09:18:21.687Z,80.17
2019-02-22T09:20:51.046Z,86.17
2019-02-22T09:23:20.398Z,80.57
2019-02-22T09:25:49.776Z,84.45
2019-02-22T09:28:19.173Z,78.30
2019-02-22T09:30:48.657Z,77.75
2019-02-22T09:33:18.044Z,77.47
2019-02-22T09:35:49.018Z,75.37
2019-02-22T09:38:18.460Z,77.15
2019-02-22T09:40:47.828Z,70.57
2019-02-22T09:43:17.200Z,76.33
2019-02-22T09:45:46.633Z,78.87
2019-02-22T09:48:16.110Z,67.58
2019-02-22T09:50:45.620Z,72.80
2019-02-22T09:53:15.088Z,72.17
2019-02-22T09:55:44.513Z,74.95
2019-02-22T09:58:16.899Z,69.07
2019-02-22T10:00:46.333Z,71.92
2019-02-22T10:03:15.748Z,75.47
2019-02-22T10:05:45.150Z,74.22
2019-02-22T10:08:14.543Z,72.65
2019-02-22T10:10:43.993Z,84.25
2019-02-22T10:13:13.357Z,81.55
2019-02-22T10:15:42.782Z,77.72
2019-02-22T10:18:12.248Z,77.93
2019-02-22T10:20:41.612Z,83.70
2019-02-22T10:23:11.052Z,76.90
2019-02-22T10:25:40.412Z,73.90
2019-02-22T10:28:17.308Z,78.22
2019-02-22T10:30:40.921Z,80.15
2019-02-22T10:33:10.301Z,73.48
2019-02-22T10:35:39.645Z,75.05
2019-02-22T10:38:09.265Z,77.92
2019-02-22T10:40:39.394Z,75.17
2019-02-22T10:43:09.249Z,76.42
2019-02-22T10:45:40.505Z,71.55
2019-02-22T10:48:09.917Z,73.65
2019-02-22T10:50:39.593Z,68.87
2019-02-22T10:53:09.098Z,67.10
2019-02-22T10:55:38.542Z,67.70
2019-02-22T10:58:08.028Z,73.60
2019-02-22T11:00:37.492Z,73.97
2019-02-22T11:03:06.942Z,67.85
2019-02-22T11:05:36.374Z,69.17
2019-02-22T11:08:05.819Z,74.87
2019-02-22T11:10:35.359Z,74.55
2019-02-22T11:13:05.808Z,68.92
2019-02-22T11:15:35.187Z,78.33
2019-02-22T11:18:05.800Z,78.05
2019-02-22T11:20:35.322Z,86.78
2019-02-22T11:23:05.436Z,85.08
2019-02-22T11:25:34.813Z,85.00
2019-02-22T11:28:04.314Z,83.33
2019-02-22T11:30:33.838Z,82.85
2019-02-22T11:33:03.228Z,83.45
2019-02-22T11:35:32.686Z,84.00
2019-02-22T11:38:02.465Z,80.70
2019-02-22T11:40:33.676Z,75.67
2019-02-22T11:43:03.393Z,77.10
2019-02-22T11:45:32.753Z,81.78
2019-02-22T11:48:09.267Z,71.72
2019-02-22T11:50:34.913Z,74.20
2019-02-22T11:53:04.399Z,71.80
2019-02-22T11:55:33.997Z,73.35
2019-02-22T11:58:03.533Z,74.03
2019-02-22T12:00:33.389Z,65.22
2019-02-22T12:03:15.766Z,70.65
2019-02-22T12:05:33.999Z,68.80
2019-02-22T12:08:03.655Z,69.72
2019-02-22T12:10:33.260Z,73.10
2019-02-22T12:13:02.812Z,69.62
2019-02-22T12:15:32.455Z,73.75
2019-02-22T12:18:01.897Z,70.40
2019-02-22T12:20:31.284Z,69.10
2019-02-22T12:23:00.638Z,70.80
2019-02-22T12:25:30.024Z,63.85
2019-02-22T12:27:59.411Z,67.08
2019-02-22T12:30:28.764Z,64.80
2019-02-22T12:32:58.139Z,64.85
2019-02-22T12:35:27.506Z,67.07
2019-02-22T12:37:56.924Z,65.03
2019-02-22T12:40:26.463Z,63.80
2019-02-22T12:42:57.554Z,59.45
2019-02-22T12:45:26.913Z,58.30
2019-02-22T12:47:56.310Z,61.18
2019-02-22T12:50:27.289Z,60.20
2019-02-22T12:52:56.806Z,65.33
2019-02-22T12:55:26.313Z,55.73
2019-02-22T12:57:55.743Z,59.50
2019-02-22T13:00:25.213Z,60.88
2019-02-22T13:03:01.942Z,61.77
2019-02-22T13:05:30.436Z,60.50
2019-02-22T13:07:59.876Z,62.20
2019-02-22T13:10:29.242Z,56.10
2019-02-22T13:12:58.631Z,55.65
2019-02-22T13:15:28.076Z,59.23
2019-02-22T13:17:57.481Z,46.53
2019-02-22T13:20:26.908Z,46.28
2019-02-22T13:22:58.390Z,47.48
2019-02-22T13:27:56.370Z,52.03
2019-02-22T13:30:25.731Z,61.92
2019-02-22T13:32:55.223Z,58.78
2019-02-22T13:35:24.605Z,61.33
2019-02-22T13:37:53.993Z,58.98
2019-02-22T13:40:23.458Z,62.23
2019-02-22T13:42:52.955Z,62.53
2019-02-22T13:45:26.688Z,64.70
2019-02-22T13:47:53.658Z,66.33
2019-02-22T13:50:23.156Z,57.70
2019-02-22T13:52:52.508Z,66.72
2019-02-22T13:55:21.953Z,64.15
2019-02-22T13:57:51.352Z,68.55
2019-02-22T14:00:21.128Z,65.70
2019-02-22T14:02:50.532Z,66.85
2019-02-22T14:05:20.004Z,67.80
2019-02-22T14:07:53.696Z,67.17
2019-02-22T14:10:23.893Z,73.00
2019-02-22T14:12:53.474Z,68.42
2019-02-22T14:15:24.134Z,74.25
2019-02-22T14:17:53.832Z,76.45
2019-02-22T14:20:23.234Z,75.15
2019-02-22T14:22:52.720Z,68.90
2019-02-22T14:25:22.147Z,74.60
2019-02-22T14:27:51.503Z,68.15
2019-02-22T14:30:21.959Z,68.50
2019-02-22T14:32:51.324Z,66.37
2019-02-22T14:35:21.763Z,68.23
2019-02-22T14:37:51.193Z,67.50
2019-02-22T14:40:20.698Z,71.67
2019-02-22T14:42:50.076Z,62.38
2019-02-22T14:45:19.511Z,64.73
2019-02-22T14:47:48.965Z,56.28
2019-02-22T14:50:18.775Z,59.65
2019-02-22T14:52:48.244Z,63.48
2019-02-22T14:55:18.136Z,65.62
2019-02-22T14:57:49.266Z,61.68
2019-02-22T15:00:19.792Z,56.90
2019-02-22T15:02:49.389Z,58.60
2019-02-22T15:05:18.908Z,56.88
2019-02-22T15:07:48.296Z,62.08
2019-02-22T15:10:18.785Z,63.42
2019-02-22T15:12:48.479Z,59.03
2019-02-22T15:15:20.906Z,65.45
2019-02-22T15:17:54.926Z,61.55
2019-02-22T15:20:24.309Z,54.55
2019-02-22T15:22:53.729Z,61.68
2019-02-22T15:25:23.304Z,54.48
2019-02-22T15:27:52.681Z,56.65
2019-02-22T15:30:23.473Z,59.80
2019-02-22T15:32:52.901Z,56.42
2019-02-22T15:35:22.305Z,54.90
2019-02-22T15:37:51.836Z,57.33
2019-02-22T15:40:21.329Z,54.33
2019-02-22T15:42:50.713Z,50.83
2019-02-22T15:45:20.361Z,44.50
2019-02-22T15:47:49.829Z,50.23
2019-02-22T15:50:22.164Z,52.40
2019-02-22T15:52:51.618Z,57.48
2019-02-22T15:55:21.073Z,53.55
2019-02-22T15:57:50.746Z,55.55
2019-02-22T16:00:33.297Z,59.35
2019-02-22T16:03:04.953Z,57.07
2019-02-22T16:05:36.142Z,64.85
2019-02-22T16:08:08.079Z,60.15
2019-02-22T16:10:37.592Z,62.83
2019-02-22T16:13:07.068Z,69.50
2019-02-22T16:15:36.657Z,67.20
2019-02-22T16:18:06.153Z,69.58
2019-02-22T16:20:35.535Z,66.55
2019-02-22T16:23:10.691Z,71.30
2019-02-22T16:25:40.054Z,60.85
2019-02-22T16:28:09.501Z,58.38
2019-02-22T16:30:39.987Z,61.75
2019-02-22T16:33:09.426Z,53.13
2019-02-22T16:35:38.832Z,56.48
2019-02-22T16:38:08.211Z,55.60
2019-02-22T16:40:37.634Z,51.70
2019-02-22T16:43:08.328Z,62.30
2019-02-22T16:45:37.756Z,58.50
2019-02-22T16:48:07.280Z,50.58
2019-02-22T16:50:36.647Z,51.33
2019-02-22T16:53:06.100Z,58.08
2019-02-22T16:55:35.470Z,57.95
2019-02-22T16:58:05.422Z,57.20
2019-02-22T17:00:34.952Z,53.40
2019-02-22T17:03:05.080Z,50.38
2019-02-22T17:05:34.732Z,53.20
2019-02-22T17:08:04.346Z,49.08
2019-02-22T17:10:33.790Z,51.83
2019-02-22T17:13:03.363Z,53.80
2019-02-22T17:15:32.711Z,49.63
2019-02-22T17:18:02.098Z,48.75
2019-02-22T17:20:31.517Z,52.35
2019-02-22T17:23:00.976Z,55.33
2019-02-22T17:25:31.446Z,53.90
2019-02-22T17:28:00.839Z,56.92
2019-02-22T17:30:30.282Z,61.20
2019-02-22T17:32:59.640Z,56.90
2019-02-22T17:35:30.721Z,59.98
2019-02-22T17:38:00.090Z,61.17
2019-02-22T17:40:33.163Z,63.20
2019-02-22T17:43:02.592Z,62.73
2019-02-22T17:45:32.051Z,59.27
2019-02-22T17:48:01.543Z,63.33
2019-02-22T17:50:30.985Z,63.70
2019-02-22T17:53:01.423Z,64.32
2019-02-22T17:55:30.950Z,63.75
2019-02-22T17:58:00.426Z,67.25
2019-02-22T18:00:30.836Z,63.55
2019-02-22T18:03:00.754Z,64.10
2019-02-22T18:05:31.984Z,63.35
2019-02-22T18:08:01.348Z,66.23
2019-02-22T18:10:30.722Z,68.10
2019-02-22T18:13:00.244Z,68.10
2019-02-22T18:15:29.620Z,67.90
2019-02-22T18:17:58.972Z,71.53
2019-02-22T18:20:28.359Z,77.95
2019-02-22T18:22:57.959Z,71.10
2019-02-22T18:25:29.066Z,83.90
2019-02-22T18:27:58.553Z,82.57
2019-02-22T18:30:27.943Z,80.87
2019-02-22T18:32:57.379Z,91.37
2019-02-22T18:35:26.810Z,83.03
2019-02-22T18:37:56.285Z,86.65
2019-02-22T18:40:25.805Z,78.97
2019-02-22T18:42:55.176Z,86.08
2019-02-22T18:45:24.547Z,85.92
2019-02-22T18:47:54.043Z,78.78
2019-02-22T18:50:23.491Z,76.22
2019-02-22T18:52:53.053Z,77.65
2019-02-22T18:55:22.469Z,73.90
2019-02-22T18:57:51.912Z,77.03
2019-02-22T19:00:21.984Z,69.53
2019-02-22T19:02:51.569Z,76.62
2019-02-22T19:05:20.932Z,72.20
2019-02-22T19:07:50.380Z,76.30
2019-02-22T19:10:20.300Z,64.32
2019-02-22T19:12:49.653Z,70.55
2019-02-22T19:15:19.033Z,73.80
2019-02-22T19:17:48.489Z,70.25
2019-02-22T19:20:23.034Z,69.58
2019-02-22T19:22:52.397Z,71.72
2019-02-22T19:25:21.764Z,73.02
2019-02-22T19:27:51.198Z,73.30
2019-02-22T19:30:25.286Z,73.95
2019-02-22T19:32:54.722Z,77.97
2019-02-22T19:35:24.096Z,70.55
2019-02-22T19:37:53.545Z,74.35
2019-02-22T19:40:24.748Z,76.30
2019-02-22T19:42:54.124Z,82.50
2019-02-22T19:45:23.562Z,72.27
2019-02-22T19:47:53.108Z,69.75
2019-02-22T19:50:22.488Z,76.35
2019-02-22T19:52:51.922Z,78.05
2019-02-22T19:55:21.310Z,75.92
2019-02-22T19:57:50.719Z,78.37
2019-02-22T20:00:20.210Z,79.03
2019-02-22T20:02:49.675Z,82.55
2019-02-22T20:05:19.100Z,79.00
2019-02-22T20:07:48.535Z,83.07
2019-02-22T20:10:20.192Z,71.95
2019-02-22T20:12:49.662Z,78.45
2019-02-22T20:15:19.272Z,78.97
2019-02-22T20:17:54.627Z,70.28
2019-02-22T20:20:20.387Z,79.60
2019-02-22T20:22:49.815Z,72.12
2019-02-22T20:25:19.161Z,66.30
2019-02-22T20:27:48.610Z,72.75
2019-02-22T20:30:19.580Z,66.72
2019-02-22T20:32:49.084Z,63.80
2019-02-22T20:35:24.366Z,69.10
2019-02-22T20:37:53.923Z,66.95
2019-02-22T20:40:24.350Z,70.78
2019-02-22T20:42:54.034Z,71.60
2019-02-22T20:45:23.571Z,72.85
2019-02-22T20:48:04.301Z,66.53
2019-02-22T20:50:24.370Z,67.37
2019-02-22T20:52:53.929Z,67.50
2019-02-22T20:55:23.551Z,66.22
2019-02-22T20:57:53.030Z,66.37
2019-02-22T21:00:28.025Z,71.90
2019-02-22T21:02:57.527Z,63.90
2019-02-22T21:05:27.349Z,63.13
2019-02-22T21:07:57.011Z,65.78
2019-02-22T21:10:26.745Z,65.85
2019-02-22T21:12:56.305Z,61.42
2019-02-22T21:15:25.946Z,68.35
2019-02-22T21:17:55.518Z,57.62
2019-02-22T21:20:25.409Z,57.00
2019-02-22T21:22:54.953Z,56.73
2019-02-22T21:25:24.549Z,56.18
2019-02-22T21:27:54.101Z,51.45
2019-02-22T21:30:23.690Z,51.98
2019-02-22T21:32:53.321Z,44.73
2019-02-22T21:35:22.862Z,53.95
2019-02-22T21:37:52.212Z,46.98
2019-02-22T21:40:21.667Z,47.80
2019-02-22T21:42:51.460Z,43.50
2019-02-22T21:45:21.165Z,46.45
2019-02-22T21:47:54.653Z,46.80
2019-02-22T21:50:21.723Z,51.33
2019-02-22T21:52:51.083Z,49.80
2019-02-22T21:55:20.432Z,49.18
2019-02-22T21:57:50.201Z,55.83
2019-02-22T22:00:22.689Z,48.87
2019-02-22T22:02:52.295Z,48.63
2019-02-22T22:05:21.777Z,42.80
2019-02-22T22:07:51.200Z,51.40
2019-02-22T22:10:20.895Z,45.55
2019-02-22T22:12:50.467Z,50.70
2019-02-22T22:15:20.153Z,52.20
2019-02-22T22:17:49.554Z,54.83
2019-02-22T22:20:18.967Z,55.90
2019-02-22T22:22:48.566Z,55.08
2019-02-22T22:25:18.571Z,61.13
2019-02-22T22:27:48.518Z,58.25
2019-02-22T22:30:18.112Z,58.58
2019-02-22T22:32:47.678Z,63.35
2019-02-22T22:35:17.991Z,65.17
2019-02-22T22:37:47.554Z,56.60
2019-02-22T22:40:17.156Z,56.23
2019-02-22T22:42:46.598Z,60.78
2019-02-22T22:45:17.266Z,57.33
2019-02-22T22:47:46.720Z,58.92
2019-02-22T22:50:17.336Z,53.98
2019-02-22T22:52:46.982Z,61.15
2019-02-22T22:55:16.595Z,61.47
2019-02-22T22:57:46.317Z,57.05
2019-02-22T23:00:51.437Z,57.45
2019-02-22T23:03:22.625Z,64.25
2019-02-22T23:05:52.379Z,60.05
2019-02-22T23:08:21.944Z,62.60
2019-02-22T23:10:51.603Z,59.88
2019-02-22T23:13:22.929Z,60.53
2019-02-22T23:15:53.536Z,58.25
2019-02-22T23:18:22.937Z,65.05
2019-02-22T23:20:52.303Z,69.70
2019-02-22T23:23:21.747Z,63.95
2019-02-22T23:25:51.169Z,63.35
2019-02-22T23:28:20.607Z,58.65
2019-02-22T23:30:50.227Z,61.53
2019-02-22T23:33:21.030Z,70.65
2019-02-22T23:35:50.459Z,67.97
2019-02-22T23:38:19.883Z,63.02
2019-02-22T23:40:49.268Z,68.30
2019-02-22T23:43:18.665Z,67.92
2019-02-22T23:45:48.071Z,61.98
2019-02-22T23:48:17.448Z,69.42
2019-02-22T23:50:46.827Z,71.92
2019-02-22T23:53:16.317Z,66.10
2019-02-22T23:55:45.669Z,70.42
2019-02-22T23:58:15.051Z,71.47
